Time,TemperatureF,DewpointF,PressureIn,WindDirection,WindDirectionDegrees,WindSpeedMPH,WindSpeedGustMPH,Humidity,HourlyPrecipIn,Conditions,Clouds,dailyrainin,SolarRadiationWatts/m^2,SoftwareType,DateUTC
2013-06-13 00:01:00,71.0,63.0,-100.00,East,88,5.0,18.0,76,0.00,,,0.01,0.000000,,2013-06-13 10:01:00,
2013-06-13 00:11:00,71.0,63.0,-100.00,East,88,5.0,18.0,76,0.00,,,0.01,0.000000,,2013-06-13 10:11:00,
2013-06-13 00:22:00,71.0,63.0,-100.00,East,88,5.0,18.0,76,0.00,,,0.01,0.000000,,2013-06-13 10:22:00,
2013-06-13 00:33:00,71.0,63.0,-100.00,East,88,5.0,18.0,76,0.00,,,0.01,0.000000,,2013-06-13 10:33:00,
2013-06-13 01:01:00,71.0,62.0,-100.00,NNE,27,7.0,23.0,73,0.00,,,0.01,0.000000,,2013-06-13 11:01:00,
2013-06-13 01:11:00,71.0,62.0,-100.00,NNE,27,7.0,23.0,73,0.00,,,0.01,0.000000,,2013-06-13 11:11:00,
2013-06-13 01:23:00,71.0,62.0,-100.00,NNE,27,7.0,23.0,73,0.00,,,0.01,0.000000,,2013-06-13 11:23:00,
2013-06-13 01:32:00,71.0,62.0,-100.00,NNE,27,7.0,23.0,73,0.00,,,0.01,0.000000,,2013-06-13 11:32:00,
2013-06-13 02:01:00,71.0,62.0,-100.00,NE,40,7.0,20.0,72,0.00,,,0.01,0.000000,,2013-06-13 12:01:00,
2013-06-13 02:11:00,71.0,62.0,-100.00,NE,40,7.0,20.0,72,0.00,,,0.01,0.000000,,2013-06-13 12:11:00,
2013-06-13 02:22:00,71.0,62.0,-100.00,NE,40,7.0,20.0,72,0.00,,,0.01,0.000000,,2013-06-13 12:22:00,
2013-06-13 02:34:00,71.0,62.0,-100.00,NE,40,7.0,20.0,72,0.00,,,0.01,0.000000,,2013-06-13 12:34:00,
2013-06-13 03:01:00,71.0,62.0,-100.00,NNW,347,7.0,25.0,73,0.00,,,0.01,0.000000,,2013-06-13 13:01:00,
2013-06-13 03:11:00,71.0,62.0,-100.00,NNW,347,7.0,25.0,73,0.00,,,0.01,0.000000,,2013-06-13 13:11:00,
2013-06-13 03:21:00,71.0,62.0,-100.00,NNW,347,7.0,25.0,73,0.00,,,0.01,0.000000,,2013-06-13 13:21:00,
2013-06-13 03:32:00,71.0,62.0,-100.00,NNW,347,7.0,25.0,73,0.00,,,0.01,0.000000,,2013-06-13 13:32:00,
2013-06-13 04:02:00,71.0,61.0,-100.00,NE,39,6.0,18.0,71,0.00,,,0.01,0.000000,,2013-06-13 14:02:00,
2013-06-13 04:11:00,71.0,61.0,-100.00,NE,39,6.0,18.0,71,0.00,,,0.01,0.000000,,2013-06-13 14:11:00,
2013-06-13 04:22:00,71.0,61.0,-100.00,NE,39,6.0,18.0,71,0.00,,,0.01,0.000000,,2013-06-13 14:22:00,
2013-06-13 04:33:00,71.0,61.0,-100.00,NE,39,6.0,18.0,71,0.00,,,0.01,0.000000,,2013-06-13 14:33:00,
2013-06-13 05:01:00,70.0,63.0,-100.00,North,357,4.0,15.0,78,0.00,,,0.01,0.000000,,2013-06-13 15:01:00,
2013-06-13 05:12:00,70.0,63.0,-100.00,North,357,4.0,15.0,78,0.00,,,0.01,0.000000,,2013-06-13 15:12:00,
2013-06-13 05:21:00,70.0,63.0,-100.00,North,357,4.0,15.0,78,0.00,,,0.01,0.000000,,2013-06-13 15:21:00,
2013-06-13 05:33:00,70.0,63.0,-100.00,North,357,4.0,15.0,78,0.00,,,0.01,0.000000,,2013-06-13 15:33:00,
2013-06-13 06:01:00,72.0,63.0,-100.00,North,351,5.0,15.0,74,0.00,,,0.01,0.000000,,2013-06-13 16:01:00,
2013-06-13 06:11:00,72.0,63.0,-100.00,North,351,5.0,15.0,74,0.00,,,0.01,0.000000,,2013-06-13 16:11:00,
2013-06-13 06:22:00,72.0,63.0,-100.00,North,351,5.0,15.0,74,0.00,,,0.01,0.000000,,2013-06-13 16:22:00,
2013-06-13 06:33:00,72.0,63.0,-100.00,North,351,5.0,15.0,74,0.00,,,0.01,0.000000,,2013-06-13 16:33:00,
2013-06-13 07:02:00,71.0,62.0,-100.00,East,91,7.0,23.0,74,0.01,,,0.02,0.000000,,2013-06-13 17:02:00,
2013-06-13 07:11:00,71.0,62.0,-100.00,East,91,7.0,23.0,74,0.01,,,0.02,0.000000,,2013-06-13 17:11:00,
2013-06-13 07:24:00,71.0,62.0,-100.00,East,91,7.0,23.0,74,0.01,,,0.02,0.000000,,2013-06-13 17:24:00,
2013-06-13 07:32:00,71.0,62.0,-100.00,East,91,7.0,23.0,74,0.01,,,0.02,0.000000,,2013-06-13 17:32:00,
2013-06-13 08:02:00,72.0,62.0,-100.00,East,80,5.0,19.0,72,0.00,,,0.02,8.000000,,2013-06-13 18:02:00,
2013-06-13 08:11:00,72.0,62.0,-100.00,East,80,5.0,19.0,72,0.00,,,0.02,8.000000,,2013-06-13 18:11:00,
2013-06-13 08:22:00,72.0,62.0,-100.00,East,80,5.0,19.0,72,0.00,,,0.02,8.000000,,2013-06-13 18:22:00,
2013-06-13 08:33:00,72.0,62.0,-100.00,East,80,5.0,19.0,72,0.00,,,0.02,8.000000,,2013-06-13 18:33:00,
2013-06-13 09:01:00,75.0,63.0,-100.00,SE,126,3.0,14.0,67,0.00,,,0.02,40.000000,,2013-06-13 19:01:00,
2013-06-13 09:11:00,75.0,63.0,-100.00,SE,126,3.0,14.0,67,0.00,,,0.02,40.000000,,2013-06-13 19:11:00,
2013-06-13 09:22:00,75.0,63.0,-100.00,SE,126,3.0,14.0,67,0.00,,,0.02,40.000000,,2013-06-13 19:22:00,
2013-06-13 09:32:00,75.0,63.0,-100.00,SE,126,3.0,14.0,67,0.00,,,0.02,40.000000,,2013-06-13 19:32:00,
2013-06-13 10:01:00,72.0,64.0,-100.00,SSW,202,6.0,20.0,76,0.00,,,-99.99,127.000000,,2013-06-13 20:01:00,
2013-06-13 10:11:00,72.0,64.0,-100.00,SSW,202,6.0,20.0,76,0.00,,,-99.99,127.000000,,2013-06-13 20:11:00,
2013-06-13 10:22:00,72.0,64.0,-100.00,SSW,202,6.0,20.0,76,0.00,,,-99.99,127.000000,,2013-06-13 20:22:00,
2013-06-13 10:32:00,72.0,64.0,-100.00,SSW,202,6.0,20.0,76,0.00,,,-99.99,127.000000,,2013-06-13 20:32:00,
2013-06-13 11:01:00,71.0,66.0,-100.00,SW,230,6.0,18.0,84,0.07,,,0.09,190.000000,,2013-06-13 21:01:00,
2013-06-13 11:11:00,71.0,66.0,-100.00,SW,230,6.0,18.0,84,0.07,,,0.09,190.000000,,2013-06-13 21:11:00,
2013-06-13 11:22:00,71.0,66.0,-100.00,SW,230,6.0,18.0,84,0.07,,,0.09,190.000000,,2013-06-13 21:22:00,
2013-06-13 11:34:00,71.0,66.0,-100.00,SW,230,6.0,18.0,84,0.07,,,0.09,190.000000,,2013-06-13 21:34:00,
2013-06-13 12:01:00,75.0,67.0,-100.00,South,182,8.0,16.0,77,0.01,,,0.10,242.000000,,2013-06-13 22:01:00,
2013-06-13 12:11:00,75.0,67.0,-100.00,South,182,8.0,16.0,77,0.01,,,0.10,242.000000,,2013-06-13 22:11:00,
2013-06-13 12:22:00,75.0,67.0,-100.00,South,182,8.0,16.0,77,0.01,,,0.10,242.000000,,2013-06-13 22:22:00,
2013-06-13 12:32:00,75.0,67.0,-100.00,South,182,8.0,16.0,77,0.01,,,0.10,242.000000,,2013-06-13 22:32:00,
2013-06-13 13:01:00,81.0,67.0,-100.00,SSW,210,4.0,16.0,62,0.00,,,0.10,320.000000,,2013-06-13 23:01:00,
2013-06-13 13:11:00,81.0,67.0,-100.00,SSW,210,4.0,16.0,62,0.00,,,0.10,320.000000,,2013-06-13 23:11:00,
2013-06-13 13:22:00,81.0,67.0,-100.00,SSW,210,4.0,16.0,62,0.00,,,0.10,320.000000,,2013-06-13 23:22:00,
2013-06-13 13:32:00,81.0,67.0,-100.00,SSW,210,4.0,16.0,62,0.00,,,0.10,320.000000,,2013-06-13 23:32:00,
2013-06-13 14:01:00,81.0,67.0,-100.00,SSW,194,7.0,18.0,63,0.00,,,0.10,728.000000,,2013-06-14 00:01:00,
2013-06-13 14:11:00,81.0,67.0,-100.00,SSW,194,7.0,18.0,63,0.00,,,0.10,728.000000,,2013-06-14 00:11:00,
2013-06-13 14:22:00,81.0,67.0,-100.00,SSW,194,7.0,18.0,63,0.00,,,0.10,728.000000,,2013-06-14 00:22:00,
2013-06-13 14:33:00,81.0,67.0,-100.00,SSW,194,7.0,18.0,63,0.00,,,0.10,728.000000,,2013-06-14 00:33:00,
2013-06-13 15:01:00,77.0,65.0,-100.00,SSE,168,6.0,20.0,67,0.00,,,0.10,693.000000,,2013-06-14 01:01:00,
2013-06-13 15:11:00,77.0,65.0,-100.00,SSE,168,6.0,20.0,67,0.00,,,0.10,693.000000,,2013-06-14 01:11:00,
2013-06-13 15:22:00,77.0,65.0,-100.00,SSE,168,6.0,20.0,67,0.00,,,0.10,693.000000,,2013-06-14 01:22:00,
2013-06-13 15:32:00,77.0,65.0,-100.00,SSE,168,6.0,20.0,67,0.00,,,0.10,693.000000,,2013-06-14 01:32:00,
2013-06-13 16:02:00,79.0,67.0,-100.00,SSW,196,8.0,22.0,66,0.00,,,0.10,452.000000,,2013-06-14 02:02:00,
2013-06-13 16:11:00,79.0,67.0,-100.00,SSW,196,8.0,22.0,66,0.00,,,0.10,452.000000,,2013-06-14 02:11:00,
2013-06-13 16:22:00,79.0,67.0,-100.00,SSW,196,8.0,22.0,66,0.00,,,0.10,452.000000,,2013-06-14 02:22:00,
2013-06-13 16:32:00,79.0,67.0,-100.00,SSW,196,8.0,22.0,66,0.00,,,0.10,452.000000,,2013-06-14 02:32:00,
2013-06-13 16:52:00,77.0,67.0,-100.00,South,170,8.0,20.0,71,0.00,,,0.10,436.000000,,2013-06-14 02:52:00,
2013-06-13 17:02:00,77.0,67.0,-100.00,South,170,8.0,20.0,71,0.00,,,0.10,436.000000,,2013-06-14 03:02:00,
2013-06-13 17:11:00,77.0,67.0,-100.00,South,170,8.0,20.0,71,0.00,,,0.10,436.000000,,2013-06-14 03:11:00,
2013-06-13 17:22:00,77.0,67.0,-100.00,South,170,8.0,20.0,71,0.00,,,0.10,436.000000,,2013-06-14 03:22:00,
2013-06-13 17:34:00,77.0,67.0,-100.00,South,170,8.0,20.0,71,0.00,,,0.10,436.000000,,2013-06-14 03:34:00,
2013-06-13 18:01:00,73.0,66.0,-100.00,NNW,348,4.0,22.0,80,0.01,,,0.11,215.000000,,2013-06-14 04:01:00,
2013-06-13 18:12:00,73.0,66.0,-100.00,NNW,348,4.0,22.0,80,0.01,,,0.11,215.000000,,2013-06-14 04:12:00,
2013-06-13 18:22:00,73.0,66.0,-100.00,NNW,348,4.0,22.0,80,0.01,,,0.11,215.000000,,2013-06-14 04:22:00,
2013-06-13 18:33:00,73.0,66.0,-100.00,NNW,348,4.0,22.0,80,0.01,,,0.11,215.000000,,2013-06-14 04:33:00,
2013-06-13 19:02:00,71.0,65.0,-100.00,NE,55,8.0,32.0,80,0.01,,,0.12,198.000000,,2013-06-14 05:02:00,
2013-06-13 19:11:00,71.0,65.0,-100.00,NE,55,8.0,32.0,80,0.01,,,0.12,198.000000,,2013-06-14 05:11:00,
2013-06-13 19:22:00,71.0,65.0,-100.00,NE,55,8.0,32.0,80,0.01,,,0.12,198.000000,,2013-06-14 05:22:00,
2013-06-13 19:33:00,71.0,65.0,-100.00,NE,55,8.0,32.0,80,0.01,,,0.12,198.000000,,2013-06-14 05:33:00,
2013-06-13 20:02:00,73.0,66.0,-100.00,East,79,8.0,29.0,78,0.00,,,0.12,67.000000,,2013-06-14 06:02:00,
2013-06-13 20:12:00,73.0,66.0,-100.00,East,79,8.0,29.0,78,0.00,,,0.12,67.000000,,2013-06-14 06:12:00,
2013-06-13 20:22:00,73.0,66.0,-100.00,East,79,8.0,29.0,78,0.00,,,0.12,67.000000,,2013-06-14 06:22:00,
2013-06-13 20:33:00,73.0,66.0,-100.00,East,79,8.0,29.0,78,0.00,,,0.12,67.000000,,2013-06-14 06:33:00,
2013-06-13 21:02:00,71.0,65.0,-100.00,SSW,200,7.0,27.0,81,0.00,,,0.12,8.000000,,2013-06-14 07:02:00,
2013-06-13 21:12:00,71.0,65.0,-100.00,SSW,200,7.0,27.0,81,0.00,,,0.12,8.000000,,2013-06-14 07:12:00,
2013-06-13 21:22:00,71.0,65.0,-100.00,SSW,200,7.0,27.0,81,0.00,,,0.12,8.000000,,2013-06-14 07:22:00,
2013-06-13 21:33:00,71.0,65.0,-100.00,SSW,200,7.0,27.0,81,0.00,,,0.12,8.000000,,2013-06-14 07:33:00,
2013-06-13 22:02:00,70.0,65.0,-100.00,NE,47,8.0,29.0,84,0.04,,,0.16,0.000000,,2013-06-14 08:02:00,
2013-06-13 22:12:00,70.0,65.0,-100.00,NE,47,8.0,29.0,84,0.04,,,0.16,0.000000,,2013-06-14 08:12:00,
2013-06-13 22:22:00,70.0,65.0,-100.00,NE,47,8.0,29.0,84,0.04,,,0.16,0.000000,,2013-06-14 08:22:00,
2013-06-13 22:33:00,70.0,65.0,-100.00,NE,47,8.0,29.0,84,0.04,,,0.16,0.000000,,2013-06-14 08:33:00,
2013-06-13 23:02:00,69.0,65.0,-100.00,WNW,301,3.0,18.0,88,0.03,,,0.18,0.000000,,2013-06-14 09:02:00,
2013-06-13 23:12:00,69.0,65.0,-100.00,WNW,301,3.0,18.0,88,0.03,,,0.18,0.000000,,2013-06-14 09:12:00,
2013-06-13 23:22:00,69.0,65.0,-100.00,WNW,301,3.0,18.0,88,0.03,,,0.18,0.000000,,2013-06-14 09:22:00,
2013-06-13 23:33:00,69.0,65.0,-100.00,WNW,301,3.0,18.0,88,0.03,,,0.18,0.000000,,2013-06-14 09:33:00,